EWG60D EDDL-LSZH
Flight info
| Callsign | EWG60D |
|---|---|
| Flight time | 0h 53m |
| Altitude | 31000 |
| Route | DODEN7Z/05R DODEN Y852 TUSUK DCT ULNOK L607 SUNEG T721 LAMGO/N0393F270 T721 RILAX |
| Aircraft | A320/M-SDE3FGHIRWY/LB1 |
Departure
| Time | 2026-04-30 20:07 |
|---|---|
| Airport | Düsseldorf Airport (EDDL) |
Arrival
| Time | 2026-04-30 21:00 |
|---|---|
| Airport | Zürich Airport (LSZH) |
| Time | Latitude | Longitude | Altitude | Speed | Heading |
|---|---|---|---|---|---|
| 2026-04-30 19:32 | 51.28150 | 6.76545 | 131 ft | 0 kts | 96° |
| 2026-04-30 19:55 | 51.28150 | 6.76544 | 130 ft | 1 kts | 96° |
| 2026-04-30 19:55 | 51.28152 | 6.76522 | 126 ft | 3 kts | 96° |
| 2026-04-30 19:56 | 51.28154 | 6.76490 | 127 ft | 3 kts | 94° |
| 2026-04-30 19:56 | 51.28154 | 6.76458 | 126 ft | 3 kts | 81° |
| 2026-04-30 19:56 | 51.28149 | 6.76431 | 125 ft | 3 kts | 41° |
| 2026-04-30 19:56 | 51.28142 | 6.76423 | 127 ft | 0 kts | 6° |
| 2026-04-30 20:01 | 51.28172 | 6.76428 | 130 ft | 8 kts | 5° |
| 2026-04-30 20:01 | 51.28200 | 6.76367 | 129 ft | 7 kts | 263° |
| 2026-04-30 20:02 | 51.28193 | 6.76243 | 126 ft | 7 kts | 317° |
| 2026-04-30 20:02 | 51.28190 | 6.76148 | 127 ft | 12 kts | 228° |
| 2026-04-30 20:03 | 51.28039 | 6.75829 | 128 ft | 24 kts | 232° |
| 2026-04-30 20:03 | 51.27931 | 6.75604 | 129 ft | 26 kts | 233° |
| 2026-04-30 20:03 | 51.27876 | 6.75489 | 126 ft | 8 kts | 232° |
| 2026-04-30 20:03 | 51.27837 | 6.75391 | 123 ft | 8 kts | 261° |
| 2026-04-30 20:04 | 51.27855 | 6.75339 | 125 ft | 8 kts | 320° |
| 2026-04-30 20:04 | 51.27885 | 6.75313 | 124 ft | 0 kts | 332° |
| 2026-04-30 20:04 | 51.27890 | 6.75309 | 124 ft | 1 kts | 332° |
| 2026-04-30 20:05 | 51.27940 | 6.75268 | 122 ft | 10 kts | 332° |
| 2026-04-30 20:05 | 51.28002 | 6.75284 | 118 ft | 10 kts | 53° |
| 2026-04-30 20:05 | 51.28011 | 6.75305 | 119 ft | 0 kts | 54° |
| 2026-04-30 20:06 | 51.28015 | 6.75312 | 119 ft | 4 kts | 54° |
| 2026-04-30 20:06 | 51.28074 | 6.75439 | 126 ft | 30 kts | 53° |
| 2026-04-30 20:06 | 51.28357 | 6.76032 | 126 ft | 101 kts | 52° |
| 2026-04-30 20:06 | 51.28909 | 6.77181 | 136 ft | 156 kts | 53° |
| 2026-04-30 20:07 | 51.29580 | 6.78573 | 726 ft | 160 kts | 56° |
| 2026-04-30 20:07 | 51.30272 | 6.80038 | 1385 ft | 168 kts | 59° |
| 2026-04-30 20:07 | 51.31798 | 6.83369 | 2335 ft | 207 kts | 61° |
| 2026-04-30 20:08 | 51.32685 | 6.85382 | 2722 ft | 235 kts | 60° |
| 2026-04-30 20:08 | 51.33698 | 6.87575 | 3351 ft | 253 kts | 58° |
| 2026-04-30 20:08 | 51.34742 | 6.89914 | 4135 ft | 263 kts | 60° |
| 2026-04-30 20:08 | 51.35473 | 6.92561 | 5065 ft | 258 kts | 85° |
| 2026-04-30 20:09 | 51.35226 | 6.95327 | 6054 ft | 252 kts | 110° |
| 2026-04-30 20:09 | 51.34650 | 6.97982 | 7033 ft | 253 kts | 107° |
| 2026-04-30 20:09 | 51.34019 | 7.03661 | 8679 ft | 264 kts | 98° |
| 2026-04-30 20:10 | 51.33536 | 7.09570 | 10416 ft | 272 kts | 98° |
| 2026-04-30 20:10 | 51.33266 | 7.12644 | 10866 ft | 290 kts | 99° |
| 2026-04-30 20:10 | 51.32814 | 7.15904 | 11172 ft | 311 kts | 110° |
| 2026-04-30 20:11 | 51.30300 | 7.21674 | 12517 ft | 326 kts | 134° |
| 2026-04-30 20:11 | 51.28654 | 7.24191 | 13339 ft | 329 kts | 134° |
| 2026-04-30 20:11 | 51.27008 | 7.26762 | 14111 ft | 332 kts | 133° |
| 2026-04-30 20:12 | 51.23698 | 7.32019 | 15444 ft | 339 kts | 132° |
| 2026-04-30 20:12 | 51.22014 | 7.34695 | 16101 ft | 343 kts | 132° |
| 2026-04-30 20:12 | 51.20313 | 7.37385 | 16765 ft | 347 kts | 132° |
| 2026-04-30 20:13 | 51.18587 | 7.40102 | 17407 ft | 350 kts | 132° |
| 2026-04-30 20:13 | 51.16844 | 7.42839 | 18056 ft | 354 kts | 132° |
| 2026-04-30 20:13 | 51.15079 | 7.45605 | 18691 ft | 358 kts | 133° |
| 2026-04-30 20:13 | 51.13287 | 7.48376 | 19243 ft | 361 kts | 133° |
| 2026-04-30 20:14 | 51.11489 | 7.51129 | 19798 ft | 364 kts | 133° |
| 2026-04-30 20:14 | 51.09650 | 7.53927 | 20365 ft | 368 kts | 134° |
| 2026-04-30 20:14 | 51.07767 | 7.56785 | 20939 ft | 371 kts | 134° |
| 2026-04-30 20:14 | 51.05917 | 7.59593 | 21510 ft | 374 kts | 133° |
| 2026-04-30 20:15 | 51.04027 | 7.62464 | 22057 ft | 378 kts | 133° |
| 2026-04-30 20:15 | 51.02120 | 7.65360 | 22618 ft | 381 kts | 133° |
| 2026-04-30 20:15 | 51.00194 | 7.68284 | 23165 ft | 384 kts | 133° |
| 2026-04-30 20:15 | 50.98253 | 7.71227 | 23706 ft | 388 kts | 134° |
| 2026-04-30 20:16 | 50.96201 | 7.74034 | 24176 ft | 393 kts | 141° |
| 2026-04-30 20:16 | 50.93882 | 7.76402 | 24610 ft | 398 kts | 145° |
| 2026-04-30 20:16 | 50.91523 | 7.78726 | 25020 ft | 401 kts | 145° |
| 2026-04-30 20:16 | 50.89146 | 7.81067 | 25424 ft | 404 kts | 145° |
| 2026-04-30 20:17 | 50.86746 | 7.83425 | 25826 ft | 407 kts | 145° |
| 2026-04-30 20:17 | 50.84332 | 7.85795 | 26232 ft | 410 kts | 145° |
| 2026-04-30 20:17 | 50.81899 | 7.88184 | 26612 ft | 413 kts | 146° |
| 2026-04-30 20:17 | 50.79449 | 7.90585 | 26990 ft | 416 kts | 146° |
| 2026-04-30 20:18 | 50.76983 | 7.92998 | 27359 ft | 418 kts | 146° |
| 2026-04-30 20:18 | 50.74500 | 7.95424 | 27731 ft | 421 kts | 146° |
| 2026-04-30 20:18 | 50.71999 | 7.97865 | 28087 ft | 424 kts | 145° |
| 2026-04-30 20:18 | 50.69473 | 8.00323 | 28424 ft | 428 kts | 145° |
| 2026-04-30 20:19 | 50.66934 | 8.02795 | 28765 ft | 431 kts | 145° |
| 2026-04-30 20:19 | 50.64380 | 8.05284 | 29108 ft | 433 kts | 145° |
| 2026-04-30 20:19 | 50.61743 | 8.07513 | 29432 ft | 439 kts | 154° |
| 2026-04-30 20:19 | 50.58803 | 8.09102 | 29765 ft | 445 kts | 163° |
| 2026-04-30 20:20 | 50.55738 | 8.09925 | 30106 ft | 450 kts | 172° |
| 2026-04-30 20:20 | 50.52611 | 8.10331 | 30422 ft | 452 kts | 173° |
| 2026-04-30 20:20 | 50.49505 | 8.10735 | 30681 ft | 454 kts | 173° |
| 2026-04-30 20:20 | 50.46352 | 8.11147 | 30935 ft | 456 kts | 173° |
| 2026-04-30 20:21 | 50.43175 | 8.11566 | 31190 ft | 458 kts | 173° |
| 2026-04-30 20:21 | 50.39993 | 8.11985 | 31338 ft | 458 kts | 173° |
| 2026-04-30 20:21 | 50.36869 | 8.12389 | 31366 ft | 443 kts | 173° |
| 2026-04-30 20:22 | 50.30833 | 8.13164 | 31367 ft | 431 kts | 172° |
| 2026-04-30 20:22 | 50.24862 | 8.13938 | 31367 ft | 430 kts | 172° |
| 2026-04-30 20:23 | 50.18902 | 8.14724 | 31365 ft | 430 kts | 172° |
| 2026-04-30 20:23 | 50.13087 | 8.16469 | 31369 ft | 423 kts | 156° |
| 2026-04-30 20:24 | 50.07928 | 8.20642 | 31366 ft | 417 kts | 145° |
| 2026-04-30 20:24 | 50.02947 | 8.25254 | 31364 ft | 417 kts | 146° |
| 2026-04-30 20:25 | 49.95450 | 8.32156 | 31346 ft | 418 kts | 146° |
| 2026-04-30 20:26 | 49.87928 | 8.39078 | 31345 ft | 419 kts | 145° |
| 2026-04-30 20:26 | 49.83230 | 8.44282 | 31339 ft | 412 kts | 133° |
| 2026-04-30 20:26 | 49.81143 | 8.47342 | 31339 ft | 412 kts | 133° |
| 2026-04-30 20:27 | 49.72549 | 8.59028 | 31339 ft | 418 kts | 146° |
| 2026-04-30 20:28 | 49.67074 | 8.62216 | 31336 ft | 427 kts | 166° |
| 2026-04-30 20:28 | 49.61215 | 8.63818 | 31345 ft | 428 kts | 166° |
| 2026-04-30 20:30 | 49.46613 | 8.68108 | 31340 ft | 424 kts | 158° |
| 2026-04-30 20:31 | 49.30592 | 8.79013 | 31334 ft | 419 kts | 152° |
| 2026-04-30 20:32 | 49.16677 | 8.85372 | 31316 ft | 432 kts | 180° |
| 2026-04-30 20:33 | 49.07678 | 8.83084 | 31325 ft | 447 kts | 187° |
| 2026-04-30 20:34 | 48.98282 | 8.80538 | 31318 ft | 466 kts | 187° |
| 2026-04-30 20:35 | 48.88791 | 8.77965 | 31238 ft | 446 kts | 187° |
| 2026-04-30 20:35 | 48.85773 | 8.77139 | 30965 ft | 436 kts | 186° |
| 2026-04-30 20:35 | 48.79836 | 8.75549 | 29637 ft | 436 kts | 186° |
| 2026-04-30 20:36 | 48.76828 | 8.74753 | 28673 ft | 441 kts | 186° |
| 2026-04-30 20:36 | 48.73791 | 8.73947 | 27738 ft | 445 kts | 187° |
| 2026-04-30 20:36 | 48.67652 | 8.72312 | 25956 ft | 450 kts | 187° |
| 2026-04-30 20:37 | 48.64563 | 8.71487 | 25102 ft | 452 kts | 187° |
| 2026-04-30 20:37 | 48.61462 | 8.70661 | 24277 ft | 453 kts | 187° |
| 2026-04-30 20:37 | 48.58356 | 8.69836 | 23384 ft | 453 kts | 187° |
| 2026-04-30 20:37 | 48.55248 | 8.69013 | 22445 ft | 453 kts | 187° |
| 2026-04-30 20:38 | 48.52145 | 8.68191 | 21529 ft | 453 kts | 187° |
| 2026-04-30 20:38 | 48.49043 | 8.67367 | 20647 ft | 453 kts | 187° |
| 2026-04-30 20:38 | 48.45944 | 8.66544 | 19787 ft | 452 kts | 188° |
| 2026-04-30 20:39 | 48.39779 | 8.64916 | 18481 ft | 441 kts | 188° |
| 2026-04-30 20:39 | 48.36817 | 8.64122 | 18343 ft | 424 kts | 188° |
| 2026-04-30 20:39 | 48.33972 | 8.63298 | 18207 ft | 409 kts | 189° |
| 2026-04-30 20:40 | 48.28594 | 8.61636 | 17940 ft | 381 kts | 189° |
| 2026-04-30 20:40 | 48.26045 | 8.60837 | 17808 ft | 368 kts | 189° |
| 2026-04-30 20:40 | 48.23578 | 8.60074 | 17644 ft | 356 kts | 189° |
| 2026-04-30 20:41 | 48.18785 | 8.58619 | 16966 ft | 348 kts | 188° |
| 2026-04-30 20:41 | 48.16420 | 8.57914 | 16589 ft | 345 kts | 188° |
| 2026-04-30 20:41 | 48.14069 | 8.57223 | 16220 ft | 343 kts | 188° |
| 2026-04-30 20:41 | 48.11735 | 8.56537 | 15859 ft | 341 kts | 188° |
| 2026-04-30 20:42 | 48.09413 | 8.55850 | 15485 ft | 339 kts | 188° |
| 2026-04-30 20:42 | 48.07106 | 8.55165 | 15120 ft | 337 kts | 188° |
| 2026-04-30 20:42 | 48.02562 | 8.53815 | 14416 ft | 333 kts | 188° |
| 2026-04-30 20:43 | 48.00297 | 8.53145 | 14061 ft | 331 kts | 188° |
| 2026-04-30 20:43 | 47.98034 | 8.52716 | 13667 ft | 326 kts | 179° |
| 2026-04-30 20:43 | 47.95794 | 8.52908 | 13346 ft | 320 kts | 168° |
| 2026-04-30 20:44 | 47.91628 | 8.54993 | 13041 ft | 313 kts | 148° |
| 2026-04-30 20:44 | 47.89822 | 8.56775 | 12628 ft | 309 kts | 138° |
| 2026-04-30 20:44 | 47.86532 | 8.60814 | 11844 ft | 305 kts | 138° |
| 2026-04-30 20:45 | 47.83266 | 8.64782 | 11094 ft | 301 kts | 139° |
| 2026-04-30 20:45 | 47.81644 | 8.66746 | 10699 ft | 300 kts | 138° |
| 2026-04-30 20:45 | 47.80036 | 8.68690 | 10369 ft | 297 kts | 138° |
| 2026-04-30 20:46 | 47.74553 | 8.71336 | 10306 ft | 295 kts | 193° |
| 2026-04-30 20:46 | 47.72693 | 8.70036 | 10306 ft | 298 kts | 208° |
| 2026-04-30 20:47 | 47.69132 | 8.66851 | 10302 ft | 299 kts | 209° |
| 2026-04-30 20:47 | 47.67955 | 8.65791 | 10303 ft | 299 kts | 210° |
| 2026-04-30 20:48 | 47.64117 | 8.63696 | 10298 ft | 294 kts | 185° |
| 2026-04-30 20:48 | 47.62087 | 8.63596 | 10224 ft | 290 kts | 172° |
| 2026-04-30 20:48 | 47.60185 | 8.64083 | 9847 ft | 286 kts | 161° |
| 2026-04-30 20:48 | 47.58289 | 8.65194 | 9357 ft | 285 kts | 152° |
| 2026-04-30 20:49 | 47.56512 | 8.66450 | 9033 ft | 281 kts | 152° |
| 2026-04-30 20:49 | 47.54752 | 8.67666 | 8672 ft | 278 kts | 152° |
| 2026-04-30 20:49 | 47.53002 | 8.68863 | 8269 ft | 277 kts | 153° |
| 2026-04-30 20:50 | 47.49510 | 8.71236 | 7463 ft | 275 kts | 153° |
| 2026-04-30 20:50 | 47.47783 | 8.72411 | 7093 ft | 272 kts | 153° |
| 2026-04-30 20:50 | 47.46066 | 8.73583 | 6997 ft | 272 kts | 154° |
| 2026-04-30 20:50 | 47.44346 | 8.74762 | 7009 ft | 272 kts | 153° |
| 2026-04-30 20:51 | 47.42629 | 8.75936 | 7011 ft | 272 kts | 154° |
| 2026-04-30 20:51 | 47.39164 | 8.78300 | 7005 ft | 275 kts | 154° |
| 2026-04-30 20:51 | 47.37427 | 8.79487 | 7009 ft | 276 kts | 154° |
| 2026-04-30 20:52 | 47.35684 | 8.80677 | 7006 ft | 276 kts | 154° |
| 2026-04-30 20:52 | 47.33985 | 8.81835 | 6944 ft | 262 kts | 154° |
| 2026-04-30 20:52 | 47.30834 | 8.83980 | 6694 ft | 237 kts | 154° |
| 2026-04-30 20:53 | 47.29341 | 8.84756 | 6488 ft | 229 kts | 173° |
| 2026-04-30 20:53 | 47.27775 | 8.84533 | 6175 ft | 227 kts | 199° |
| 2026-04-30 20:53 | 47.26429 | 8.83368 | 5921 ft | 224 kts | 223° |
| 2026-04-30 20:54 | 47.24900 | 8.79319 | 5995 ft | 230 kts | 245° |
| 2026-04-30 20:54 | 47.24258 | 8.77179 | 5966 ft | 228 kts | 245° |
| 2026-04-30 20:54 | 47.23607 | 8.75058 | 5950 ft | 228 kts | 244° |
| 2026-04-30 20:55 | 47.23635 | 8.70635 | 5952 ft | 230 kts | 305° |
| 2026-04-30 20:55 | 47.24841 | 8.69121 | 5800 ft | 230 kts | 333° |
| 2026-04-30 20:55 | 47.26299 | 8.68129 | 5445 ft | 230 kts | 337° |
| 2026-04-30 20:56 | 47.29208 | 8.66228 | 4929 ft | 224 kts | 336° |
| 2026-04-30 20:56 | 47.30581 | 8.65268 | 4804 ft | 216 kts | 337° |
| 2026-04-30 20:56 | 47.33192 | 8.63506 | 4264 ft | 194 kts | 339° |
| 2026-04-30 20:57 | 47.34388 | 8.62678 | 3888 ft | 185 kts | 339° |
| 2026-04-30 20:57 | 47.35489 | 8.61905 | 3671 ft | 164 kts | 339° |
| 2026-04-30 20:57 | 47.36483 | 8.61203 | 3420 ft | 153 kts | 341° |
| 2026-04-30 20:58 | 47.38341 | 8.59963 | 3016 ft | 143 kts | 343° |
| 2026-04-30 20:58 | 47.39236 | 8.59359 | 2819 ft | 140 kts | 339° |
| 2026-04-30 20:58 | 47.40113 | 8.58759 | 2559 ft | 138 kts | 340° |
| 2026-04-30 20:58 | 47.40975 | 8.58154 | 2361 ft | 138 kts | 339° |
| 2026-04-30 20:59 | 47.42700 | 8.56951 | 1927 ft | 138 kts | 339° |
| 2026-04-30 20:59 | 47.43566 | 8.56359 | 1747 ft | 137 kts | 339° |
| 2026-04-30 21:00 | 47.45260 | 8.55177 | 1413 ft | 125 kts | 339° |
| 2026-04-30 21:00 | 47.46297 | 8.54468 | 1397 ft | 32 kts | 334° |
| 2026-04-30 21:01 | 47.46467 | 8.54534 | 1402 ft | 5 kts | 65° |
| 2026-04-30 21:01 | 47.46478 | 8.54571 | 1398 ft | 3 kts | 71° |
| 2026-04-30 21:01 | 47.46423 | 8.54663 | 1402 ft | 13 kts | 155° |
| 2026-04-30 21:02 | 47.46348 | 8.54714 | 1401 ft | 0 kts | 153° |
| 2026-04-30 21:03 | 47.46347 | 8.54715 | 1400 ft | 1 kts | 153° |
| 2026-04-30 21:03 | 47.46322 | 8.54733 | 1402 ft | 6 kts | 153° |
| 2026-04-30 21:03 | 47.46267 | 8.54772 | 1399 ft | 11 kts | 155° |
| 2026-04-30 21:03 | 47.46174 | 8.54833 | 1395 ft | 18 kts | 156° |
| 2026-04-30 21:04 | 47.46043 | 8.54925 | 1398 ft | 22 kts | 154° |
| 2026-04-30 21:04 | 47.45894 | 8.55027 | 1395 ft | 25 kts | 155° |
| 2026-04-30 21:04 | 47.45671 | 8.55181 | 1403 ft | 10 kts | 154° |
| 2026-04-30 21:05 | 47.45604 | 8.55230 | 1405 ft | 12 kts | 153° |
| 2026-04-30 21:05 | 47.45541 | 8.55289 | 1397 ft | 10 kts | 112° |
| 2026-04-30 21:05 | 47.45534 | 8.55392 | 1400 ft | 11 kts | 96° |
| 2026-04-30 21:05 | 47.45525 | 8.55512 | 1397 ft | 13 kts | 96° |
| 2026-04-30 21:06 | 47.45515 | 8.55656 | 1402 ft | 15 kts | 96° |
| 2026-04-30 21:06 | 47.45503 | 8.55820 | 1405 ft | 17 kts | 95° |
| 2026-04-30 21:06 | 47.45494 | 8.55939 | 1397 ft | 8 kts | 100° |
| 2026-04-30 21:06 | 47.45455 | 8.55952 | 1397 ft | 6 kts | 186° |
| 2026-04-30 21:07 | 47.45422 | 8.55948 | 1397 ft | 3 kts | 185° |
| 2026-04-30 21:07 | 47.45412 | 8.55947 | 1397 ft | 0 kts | 185° |